createdAt,value
2022-10-11T00:02:20.208Z,69.20
2022-10-11T00:05:22.359Z,69.17
2022-10-11T00:08:25.009Z,69.18
2022-10-11T00:11:27.364Z,69.11
2022-10-11T00:14:29.881Z,69.09
2022-10-11T00:17:33.220Z,69.06
2022-10-11T00:20:35.590Z,69.17
2022-10-11T00:23:38.413Z,69.25
2022-10-11T00:26:45.755Z,69.24
2022-10-11T00:29:49.098Z,69.10
2022-10-11T00:32:53.075Z,69.08
2022-10-11T00:35:55.339Z,69.12
2022-10-11T00:38:58.233Z,69.18
2022-10-11T00:42:00.422Z,69.15
2022-10-11T00:45:27.376Z,69.13
2022-10-11T00:48:49.072Z,69.28
2022-10-11T00:51:56.979Z,69.26
2022-10-11T00:55:06.459Z,69.29
2022-10-11T00:58:10.845Z,69.29
2022-10-11T01:01:13.867Z,69.29
2022-10-11T01:04:16.197Z,69.31
2022-10-11T01:07:21.390Z,69.36
2022-10-11T01:10:23.673Z,69.35
2022-10-11T01:13:50.350Z,69.26
2022-10-11T01:17:01.062Z,69.23
2022-10-11T01:20:28.602Z,69.21
2022-10-11T01:23:52.882Z,69.08
2022-10-11T01:27:01.434Z,69.01
2022-10-11T01:30:19.602Z,69.02
2022-10-11T01:33:38.361Z,68.86
2022-10-11T01:36:50.172Z,68.91
2022-10-11T01:40:01.504Z,68.89
2022-10-11T01:43:06.579Z,68.84
2022-10-11T01:46:10.937Z,68.85
2022-10-11T01:49:14.159Z,68.82
2022-10-11T01:52:16.608Z,68.97
2022-10-11T01:55:32.234Z,68.89
2022-10-11T01:58:56.044Z,68.80
2022-10-11T02:02:16.799Z,68.85
2022-10-11T02:05:43.507Z,68.89
2022-10-11T02:09:07.160Z,68.92
2022-10-11T02:12:13.826Z,68.87
2022-10-11T02:15:17.627Z,68.85
2022-10-11T02:18:25.602Z,68.85
2022-10-11T02:21:29.882Z,68.82
2022-10-11T02:24:40.434Z,68.79
2022-10-11T02:27:47.590Z,68.83
2022-10-11T02:30:52.218Z,68.84
2022-10-11T02:34:10.215Z,68.78
2022-10-11T02:37:35.637Z,68.77
2022-10-11T02:40:45.528Z,68.82
2022-10-11T02:44:16.461Z,68.76
2022-10-11T02:47:19.856Z,68.83
2022-10-11T02:50:23.332Z,68.87
2022-10-11T02:53:27.418Z,68.80
2022-10-11T02:56:29.608Z,68.79
2022-10-11T02:59:32.257Z,68.83
2022-10-11T03:02:34.652Z,68.82
2022-10-11T03:05:44.147Z,68.80
2022-10-11T03:08:46.509Z,68.81
2022-10-11T03:11:49.259Z,68.80
2022-10-11T03:14:53.401Z,68.86
2022-10-11T03:17:57.040Z,68.80
2022-10-11T03:20:59.485Z,68.87
2022-10-11T03:24:01.809Z,68.79
2022-10-11T03:27:04.059Z,68.74
2022-10-11T03:30:09.116Z,68.86
2022-10-11T03:33:11.199Z,68.75
2022-10-11T03:36:15.386Z,68.85
2022-10-11T03:39:18.730Z,68.87
2022-10-11T03:42:21.412Z,68.80
2022-10-11T03:45:24.388Z,68.82
2022-10-11T03:48:27.912Z,68.85
2022-10-11T03:51:30.536Z,68.73
2022-10-11T03:54:33.033Z,68.77
2022-10-11T03:57:35.099Z,68.75
2022-10-11T04:00:39.611Z,68.80
2022-10-11T04:03:42.006Z,68.76
2022-10-11T04:06:46.439Z,68.81
2022-10-11T04:09:48.527Z,68.80
2022-10-11T04:12:50.774Z,68.79
2022-10-11T04:15:52.669Z,68.80
2022-10-11T04:18:54.946Z,68.81
2022-10-11T04:21:57.403Z,68.87
2022-10-11T04:25:00.209Z,68.87
2022-10-11T04:28:02.327Z,68.87
2022-10-11T04:31:06.058Z,68.87
2022-10-11T04:34:08.125Z,68.88
2022-10-11T04:37:11.146Z,68.82
2022-10-11T04:40:13.253Z,68.83
2022-10-11T04:43:20.102Z,68.96
2022-10-11T04:46:23.416Z,68.84
2022-10-11T04:49:25.849Z,68.85
2022-10-11T04:52:27.902Z,68.82
2022-10-11T04:55:30.777Z,68.87
2022-10-11T04:58:35.329Z,68.84
2022-10-11T05:01:37.917Z,68.88
2022-10-11T05:04:40.139Z,68.86
2022-10-11T05:07:44.345Z,68.90
2022-10-11T05:11:07.235Z,68.84
2022-10-11T05:14:10.285Z,68.87
2022-10-11T05:17:12.813Z,68.81
2022-10-11T05:20:15.279Z,68.91
2022-10-11T05:23:17.306Z,68.88
2022-10-11T05:26:20.821Z,68.83
2022-10-11T05:29:23.065Z,68.87
2022-10-11T05:32:27.885Z,68.87
2022-10-11T05:35:30.448Z,68.81
2022-10-11T05:38:33.609Z,68.90
2022-10-11T05:41:35.947Z,68.88
2022-10-11T05:44:38.453Z,68.93
2022-10-11T05:47:40.614Z,68.85
2022-10-11T05:50:43.051Z,68.84
2022-10-11T05:53:45.020Z,68.79
2022-10-11T05:56:47.541Z,68.75
2022-10-11T05:59:50.375Z,68.76
2022-10-11T06:02:53.520Z,68.77
2022-10-11T06:05:57.177Z,68.74
2022-10-11T06:08:59.716Z,68.73
2022-10-11T06:12:02.233Z,68.68
2022-10-11T06:15:06.585Z,68.75
2022-10-11T06:18:08.913Z,68.63
2022-10-11T06:21:11.298Z,68.64
2022-10-11T06:24:13.601Z,68.55
2022-10-11T06:27:16.450Z,68.44
2022-10-11T06:30:18.619Z,68.55
2022-10-11T06:33:21.443Z,68.51
2022-10-11T06:36:23.669Z,68.49
2022-10-11T06:39:26.064Z,68.40
2022-10-11T06:42:28.158Z,68.37
2022-10-11T06:45:32.696Z,68.38
2022-10-11T06:48:40.180Z,68.36
2022-10-11T06:51:43.560Z,68.35
2022-10-11T06:54:45.836Z,68.40
2022-10-11T06:57:48.264Z,68.37
2022-10-11T07:00:51.049Z,68.33
2022-10-11T07:03:56.241Z,68.35
2022-10-11T07:06:58.245Z,68.31
2022-10-11T07:10:01.692Z,68.42
2022-10-11T07:13:04.697Z,68.38
2022-10-11T07:16:12.455Z,68.47
2022-10-11T07:19:14.783Z,68.46
2022-10-11T07:22:18.126Z,68.49
2022-10-11T07:25:20.385Z,68.43
2022-10-11T07:28:23.788Z,68.50
2022-10-11T07:31:26.709Z,68.49
2022-10-11T07:34:29.223Z,68.47
2022-10-11T07:37:34.598Z,68.51
2022-10-11T07:40:46.739Z,68.52
2022-10-11T07:43:50.353Z,68.42
2022-10-11T07:46:53.617Z,68.43
2022-10-11T07:49:55.712Z,68.51
2022-10-11T07:52:58.634Z,68.40
2022-10-11T07:56:02.749Z,68.37
2022-10-11T07:59:05.540Z,68.28
2022-10-11T08:02:14.497Z,68.33
2022-10-11T08:05:17.768Z,68.29
2022-10-11T08:08:19.930Z,68.26
2022-10-11T08:11:26.590Z,68.28
2022-10-11T08:14:28.734Z,68.21
2022-10-11T08:17:31.146Z,68.21
2022-10-11T08:20:33.354Z,68.29
2022-10-11T08:23:36.347Z,68.26
2022-10-11T08:26:38.670Z,68.25
2022-10-11T08:29:40.997Z,68.25
2022-10-11T08:32:43.423Z,68.19
2022-10-11T08:35:46.090Z,68.08
2022-10-11T08:38:48.277Z,68.09
2022-10-11T08:41:57.994Z,68.09
2022-10-11T08:45:12.348Z,67.98
2022-10-11T08:48:19.473Z,67.98
2022-10-11T08:51:25.549Z,67.96
2022-10-11T08:54:46.802Z,67.90
2022-10-11T08:57:53.993Z,67.80
2022-10-11T09:00:58.193Z,67.75
2022-10-11T09:04:00.690Z,67.68
2022-10-11T09:07:19.473Z,67.59
2022-10-11T09:10:25.527Z,67.63
2022-10-11T09:13:35.172Z,67.55
2022-10-11T09:16:43.985Z,67.50
2022-10-11T09:20:29.377Z,67.47
2022-10-11T09:24:22.763Z,67.42
2022-10-11T09:28:01.166Z,67.40
2022-10-11T09:31:01.340Z,67.42
2022-10-11T09:34:14.010Z,67.31
2022-10-11T09:37:35.657Z,67.31
2022-10-11T09:40:59.337Z,67.26
2022-10-11T09:44:01.887Z,67.22
2022-10-11T09:47:05.942Z,67.13
2022-10-11T09:50:18.596Z,67.06
2022-10-11T09:53:22.224Z,67.08
2022-10-11T09:56:27.068Z,67.06
2022-10-11T09:59:32.604Z,67.07
2022-10-11T10:02:47.665Z,67.03
2022-10-11T10:06:06.886Z,67.03
2022-10-11T10:09:28.076Z,67.01
2022-10-11T10:12:31.433Z,66.99
2022-10-11T10:15:37.970Z,66.97
2022-10-11T10:18:51.424Z,67.00
2022-10-11T10:21:56.428Z,66.90
2022-10-11T10:25:02.158Z,66.80
2022-10-11T10:28:21.889Z,66.71
2022-10-11T10:31:49.499Z,66.67
2022-10-11T10:35:06.753Z,66.55
2022-10-11T10:38:32.946Z,66.51
2022-10-11T10:41:36.602Z,66.36
2022-10-11T10:44:38.939Z,66.26
2022-10-11T10:47:57.877Z,66.22
2022-10-11T10:51:12.805Z,65.25
2022-10-11T10:54:30.147Z,58.50
2022-10-11T10:58:01.191Z,60.38
2022-10-11T11:01:15.263Z,61.24
2022-10-11T11:04:34.416Z,63.49
2022-10-11T11:08:19.764Z,64.46
2022-10-11T11:11:32.319Z,64.86
2022-10-11T11:15:02.678Z,63.56
2022-10-11T11:18:17.258Z,64.30
2022-10-11T11:21:27.488Z,63.53
2022-10-11T11:24:52.371Z,63.46
2022-10-11T11:28:09.110Z,65.35
2022-10-11T11:31:29.973Z,66.96
2022-10-11T11:34:42.302Z,66.86
2022-10-11T11:37:53.011Z,67.26
2022-10-11T11:41:06.621Z,63.75
2022-10-11T11:44:22.770Z,66.67
2022-10-11T11:47:43.424Z,60.99
2022-10-11T11:51:03.057Z,65.42
2022-10-11T11:54:30.117Z,64.19
2022-10-11T11:57:50.967Z,65.54
2022-10-11T12:00:59.423Z,64.87
2022-10-11T12:04:22.606Z,60.24
2022-10-11T12:07:27.697Z,65.03
2022-10-11T12:10:54.753Z,61.72
2022-10-11T12:13:57.985Z,60.98
2022-10-11T12:17:22.886Z,62.16
2022-10-11T12:20:37.567Z,63.37
2022-10-11T12:23:43.674Z,61.26
2022-10-11T12:27:29.388Z,62.66
2022-10-11T12:30:44.484Z,62.70
2022-10-11T12:33:47.667Z,65.49
2022-10-11T12:36:51.720Z,65.88
2022-10-11T12:39:58.074Z,64.87
2022-10-11T12:43:31.485Z,64.20
2022-10-11T12:46:39.655Z,65.07
2022-10-11T12:49:48.050Z,63.54
2022-10-11T12:53:02.433Z,64.89
2022-10-11T12:56:27.339Z,59.55
2022-10-11T12:59:31.771Z,59.74
2022-10-11T13:02:42.724Z,62.23
2022-10-11T13:05:51.023Z,63.54
2022-10-11T13:09:00.270Z,61.19
2022-10-11T13:12:09.420Z,60.41
2022-10-11T13:15:21.459Z,56.69
2022-10-11T13:18:25.951Z,59.39
2022-10-11T13:21:36.504Z,57.61
2022-10-11T13:24:40.832Z,59.69
2022-10-11T13:27:44.120Z,61.84
2022-10-11T13:30:54.716Z,59.75
2022-10-11T13:33:59.748Z,58.50
2022-10-11T13:37:02.008Z,57.04
2022-10-11T13:40:05.479Z,62.15
2022-10-11T13:43:08.379Z,57.97
2022-10-11T13:46:20.401Z,58.57
2022-10-11T13:49:37.593Z,57.33
2022-10-11T13:52:55.700Z,57.58
2022-10-11T13:56:00.115Z,59.71
2022-10-11T13:59:02.920Z,62.05
2022-10-11T14:02:05.157Z,60.99
2022-10-11T14:05:08.614Z,58.40
2022-10-11T14:08:23.150Z,63.78
2022-10-11T14:11:37.693Z,61.53
2022-10-11T14:14:42.074Z,62.37
2022-10-11T14:17:45.996Z,62.62
2022-10-11T14:20:50.130Z,63.02
2022-10-11T14:24:05.487Z,56.20
2022-10-11T14:27:11.551Z,59.10
2022-10-11T14:30:27.399Z,60.35
2022-10-11T14:33:30.650Z,63.74
2022-10-11T14:36:33.836Z,63.26
2022-10-11T14:39:36.107Z,63.37
2022-10-11T14:42:38.553Z,61.57
2022-10-11T14:45:40.753Z,62.48
2022-10-11T14:48:54.833Z,59.12
2022-10-11T14:51:58.880Z,58.25
2022-10-11T14:55:02.393Z,63.17
2022-10-11T14:58:05.783Z,62.23
2022-10-11T15:01:13.029Z,55.55
2022-10-11T15:04:16.311Z,58.84
2022-10-11T15:07:18.786Z,58.92
2022-10-11T15:10:37.910Z,58.40
2022-10-11T15:13:40.294Z,59.50
2022-10-11T15:16:42.462Z,56.28
2022-10-11T15:19:45.375Z,61.90
2022-10-11T15:22:47.531Z,60.17
2022-10-11T15:25:50.490Z,62.77
2022-10-11T15:28:54.462Z,60.44
2022-10-11T15:31:57.226Z,61.07
2022-10-11T15:34:59.269Z,60.96
2022-10-11T15:38:01.670Z,61.76
2022-10-11T15:41:04.554Z,62.48
2022-10-11T15:44:07.257Z,63.64
2022-10-11T15:47:09.510Z,64.28
2022-10-11T15:50:37.657Z,63.73
2022-10-11T15:53:40.961Z,64.75
2022-10-11T15:56:43.917Z,64.57
2022-10-11T15:59:46.877Z,64.57
2022-10-11T16:02:52.066Z,64.82
2022-10-11T16:05:55.133Z,64.95
2022-10-11T16:08:57.849Z,65.03
2022-10-11T16:12:00.079Z,64.96
2022-10-11T16:15:02.923Z,65.29
2022-10-11T16:18:06.258Z,65.30
2022-10-11T16:21:10.829Z,65.34
2022-10-11T16:24:14.510Z,65.23
2022-10-11T16:27:19.006Z,65.18
2022-10-11T16:30:21.644Z,65.53
2022-10-11T16:33:24.579Z,65.60
2022-10-11T16:36:32.357Z,65.11
2022-10-11T16:39:35.659Z,65.16
2022-10-11T16:42:40.949Z,65.83
2022-10-11T16:45:44.001Z,65.42
2022-10-11T16:48:47.081Z,65.81
2022-10-11T16:51:51.559Z,65.93
2022-10-11T16:54:55.595Z,65.33
2022-10-11T16:57:58.124Z,65.80
2022-10-11T17:01:00.317Z,65.87
2022-10-11T17:04:03.317Z,65.51
2022-10-11T17:07:12.465Z,68.46
2022-10-11T17:10:15.430Z,68.33
2022-10-11T17:13:17.490Z,67.85
2022-10-11T17:16:22.433Z,67.31
2022-10-11T17:19:26.305Z,67.05
2022-10-11T17:22:28.894Z,66.78
2022-10-11T17:25:31.081Z,66.57
2022-10-11T17:28:35.398Z,66.46
2022-10-11T17:31:38.825Z,66.34
2022-10-11T17:34:41.174Z,66.33
2022-10-11T17:37:43.244Z,66.21
2022-10-11T17:40:47.115Z,66.24
2022-10-11T17:43:49.441Z,66.22
2022-10-11T17:46:52.183Z,66.41
2022-10-11T17:49:54.257Z,66.42
2022-10-11T17:52:56.713Z,66.44
2022-10-11T17:55:59.426Z,66.41
2022-10-11T17:59:02.163Z,66.45
2022-10-11T18:02:04.287Z,66.40
2022-10-11T18:05:08.953Z,66.55
2022-10-11T18:08:11.383Z,66.52
2022-10-11T18:11:19.293Z,66.58
2022-10-11T18:14:21.440Z,66.53
2022-10-11T18:17:23.883Z,66.62
2022-10-11T18:20:26.288Z,66.65
2022-10-11T18:23:28.823Z,66.72
2022-10-11T18:26:31.278Z,66.82
2022-10-11T18:29:35.017Z,66.80
2022-10-11T18:32:37.694Z,66.86
2022-10-11T18:35:40.647Z,66.87
2022-10-11T18:38:46.673Z,66.91
2022-10-11T18:41:49.307Z,66.98
2022-10-11T18:44:51.606Z,67.10
2022-10-11T18:47:54.157Z,67.04
2022-10-11T18:51:08.231Z,67.06
2022-10-11T18:54:16.980Z,67.16
2022-10-11T18:57:24.311Z,67.15
2022-10-11T19:00:42.163Z,67.22
2022-10-11T19:03:46.667Z,67.31
2022-10-11T19:06:49.646Z,67.21
2022-10-11T19:09:51.817Z,67.22
2022-10-11T19:12:54.116Z,67.20
2022-10-11T19:16:04.650Z,67.21
2022-10-11T19:19:09.664Z,67.18
2022-10-11T19:22:11.515Z,67.16
2022-10-11T19:25:15.021Z,67.16
2022-10-11T19:28:17.411Z,67.08
2022-10-11T19:31:19.771Z,67.13
2022-10-11T19:34:23.418Z,67.11
2022-10-11T19:37:26.695Z,67.08
2022-10-11T19:40:30.354Z,67.12
2022-10-11T19:43:35.412Z,67.12
2022-10-11T19:46:51.002Z,67.10
2022-10-11T19:49:54.306Z,67.01
2022-10-11T19:52:56.223Z,67.01
2022-10-11T19:56:04.071Z,67.00
2022-10-11T19:59:06.830Z,67.03
2022-10-11T20:02:10.738Z,67.02
2022-10-11T20:05:14.249Z,67.02
2022-10-11T20:08:17.163Z,66.98
2022-10-11T20:11:20.880Z,67.02
2022-10-11T20:14:23.656Z,67.12
2022-10-11T20:17:46.237Z,67.18
2022-10-11T20:20:56.011Z,67.10
2022-10-11T20:24:03.916Z,67.01
2022-10-11T20:27:06.656Z,67.11
2022-10-11T20:30:10.982Z,67.06
2022-10-11T20:33:13.397Z,67.15
2022-10-11T20:36:18.471Z,67.22
2022-10-11T20:39:21.037Z,67.20
2022-10-11T20:42:27.591Z,67.23
2022-10-11T20:45:32.106Z,67.13
2022-10-11T20:48:35.665Z,67.25
2022-10-11T20:51:41.841Z,67.21
2022-10-11T20:54:44.067Z,67.27
2022-10-11T20:57:46.716Z,67.30
2022-10-11T21:00:49.667Z,67.30
2022-10-11T21:03:52.541Z,67.31
2022-10-11T21:06:55.013Z,67.27
2022-10-11T21:09:57.538Z,67.34
2022-10-11T21:13:00.137Z,67.33
2022-10-11T21:16:08.648Z,67.34
2022-10-11T21:19:14.147Z,67.30
2022-10-11T21:22:16.513Z,67.46
2022-10-11T21:25:18.574Z,67.41
2022-10-11T21:28:21.381Z,67.38
2022-10-11T21:31:24.034Z,67.42
2022-10-11T21:34:26.337Z,67.35
2022-10-11T21:37:28.294Z,67.33
2022-10-11T21:40:30.536Z,67.36
2022-10-11T21:43:35.516Z,67.53
2022-10-11T21:50:01.277Z,67.45
2022-10-11T21:53:03.782Z,67.41
2022-10-11T21:56:07.341Z,67.36
2022-10-11T21:59:12.660Z,67.38
2022-10-11T22:02:15.103Z,67.36
2022-10-11T22:05:18.517Z,67.40
2022-10-11T22:08:21.279Z,67.35
2022-10-11T22:11:23.783Z,67.35
2022-10-11T22:14:25.996Z,67.39
2022-10-11T22:17:28.678Z,67.32
2022-10-11T22:20:34.845Z,67.34
2022-10-11T22:23:37.305Z,67.31
2022-10-11T22:26:39.730Z,67.26
2022-10-11T22:29:43.176Z,67.23
2022-10-11T22:32:45.431Z,67.38
2022-10-11T22:35:48.014Z,67.19
2022-10-11T22:38:51.326Z,67.23
2022-10-11T22:41:54.872Z,67.24
2022-10-11T22:44:56.879Z,67.23
2022-10-11T22:47:59.298Z,67.23
2022-10-11T22:51:02.168Z,67.22
2022-10-11T22:54:04.715Z,67.23
2022-10-11T22:57:06.669Z,67.23
2022-10-11T23:00:09.423Z,67.26
2022-10-11T23:03:16.078Z,67.34
2022-10-11T23:06:18.636Z,67.37
2022-10-11T23:09:20.749Z,67.33
2022-10-11T23:12:22.943Z,67.31
2022-10-11T23:15:25.037Z,67.44
2022-10-11T23:18:27.384Z,67.48
2022-10-11T23:21:29.469Z,67.55
2022-10-11T23:24:31.804Z,67.61
2022-10-11T23:27:35.577Z,67.59
2022-10-11T23:30:39.851Z,67.80
2022-10-11T23:33:42.244Z,67.86
2022-10-11T23:36:44.476Z,68.00
2022-10-11T23:39:46.407Z,68.04
2022-10-11T23:42:49.057Z,68.17
2022-10-11T23:45:51.550Z,68.28
2022-10-11T23:48:54.074Z,68.25
2022-10-11T23:51:57.339Z,68.20
2022-10-11T23:55:00.029Z,68.32
2022-10-11T23:58:02.085Z,68.14
